WZZ9TU LHBP-EHEH
Flight info
| Callsign | WZZ9TU |
|---|---|
| Flight time | 1h 41m |
| Altitude | 34000 |
| Route | GILEP DCT ZOLKU DCT BEGLA DCT DITIS DCT RAPET DCT RUNEN DCT MAPOX DCT BIGGE DCT DOMEG DCT ROTEK |
| Aircraft | A21N/M-SDE3FGHIRWY/LB1 |
Departure
| Time | 2026-05-06 16:52 |
|---|---|
| Airport | Budapest Liszt Ferenc International Airport (LHBP) |
Arrival
| Time | 2026-05-06 18:33 |
|---|---|
| Airport | Eindhoven Airport (EHEH) |
| Time | Latitude | Longitude | Altitude | Speed | Heading |
|---|---|---|---|---|---|
| 2026-05-06 16:36 | 47.43291 | 19.25701 | 466 ft | 0 kts | 42° |
| 2026-05-06 16:44 | 47.43290 | 19.25701 | 466 ft | 1 kts | 41° |
| 2026-05-06 16:44 | 47.43280 | 19.25686 | 465 ft | 2 kts | 43° |
| 2026-05-06 16:44 | 47.43273 | 19.25677 | 465 ft | 2 kts | 41° |
| 2026-05-06 16:44 | 47.43261 | 19.25664 | 465 ft | 2 kts | 24° |
| 2026-05-06 16:45 | 47.43247 | 19.25656 | 465 ft | 2 kts | 12° |
| 2026-05-06 16:45 | 47.43231 | 19.25654 | 464 ft | 2 kts | 358° |
| 2026-05-06 16:45 | 47.43216 | 19.25656 | 464 ft | 2 kts | 345° |
| 2026-05-06 16:45 | 47.43202 | 19.25664 | 464 ft | 2 kts | 331° |
| 2026-05-06 16:46 | 47.43191 | 19.25676 | 464 ft | 2 kts | 319° |
| 2026-05-06 16:46 | 47.43185 | 19.25684 | 464 ft | 1 kts | 310° |
| 2026-05-06 16:46 | 47.43182 | 19.25689 | 464 ft | 0 kts | 311° |
| 2026-05-06 16:47 | 47.43186 | 19.25683 | 464 ft | 1 kts | 314° |
| 2026-05-06 16:48 | 47.43198 | 19.25665 | 464 ft | 3 kts | 314° |
| 2026-05-06 16:48 | 47.43221 | 19.25630 | 464 ft | 5 kts | 314° |
| 2026-05-06 16:48 | 47.43250 | 19.25581 | 464 ft | 7 kts | 310° |
| 2026-05-06 16:48 | 47.43288 | 19.25520 | 464 ft | 8 kts | 314° |
| 2026-05-06 16:49 | 47.43325 | 19.25459 | 465 ft | 7 kts | 308° |
| 2026-05-06 16:49 | 47.43338 | 19.25404 | 465 ft | 4 kts | 269° |
| 2026-05-06 16:49 | 47.43328 | 19.25371 | 463 ft | 4 kts | 231° |
| 2026-05-06 16:49 | 47.43298 | 19.25326 | 462 ft | 8 kts | 223° |
| 2026-05-06 16:50 | 47.43270 | 19.25288 | 461 ft | 6 kts | 222° |
| 2026-05-06 16:50 | 47.43223 | 19.25224 | 459 ft | 11 kts | 221° |
| 2026-05-06 16:50 | 47.43152 | 19.25130 | 455 ft | 15 kts | 223° |
| 2026-05-06 16:50 | 47.43095 | 19.24983 | 450 ft | 18 kts | 269° |
| 2026-05-06 16:51 | 47.43169 | 19.24826 | 446 ft | 19 kts | 311° |
| 2026-05-06 16:51 | 47.43368 | 19.24496 | 437 ft | 79 kts | 309° |
| 2026-05-06 16:51 | 47.43889 | 19.23649 | 442 ft | 141 kts | 310° |
| 2026-05-06 16:51 | 47.44669 | 19.22391 | 538 ft | 181 kts | 309° |
| 2026-05-06 16:52 | 47.45534 | 19.21026 | 1072 ft | 185 kts | 308° |
| 2026-05-06 16:52 | 47.46374 | 19.19622 | 1769 ft | 183 kts | 304° |
| 2026-05-06 16:52 | 47.47218 | 19.18244 | 2389 ft | 187 kts | 306° |
| 2026-05-06 16:52 | 47.48108 | 19.16779 | 2868 ft | 197 kts | 300° |
| 2026-05-06 16:53 | 47.48500 | 19.14876 | 3230 ft | 202 kts | 256° |
| 2026-05-06 16:53 | 47.48046 | 19.12887 | 3756 ft | 211 kts | 243° |
| 2026-05-06 16:53 | 47.47473 | 19.10807 | 4268 ft | 229 kts | 245° |
| 2026-05-06 16:53 | 47.46831 | 19.08564 | 4773 ft | 244 kts | 235° |
| 2026-05-06 16:54 | 47.45628 | 19.06828 | 5423 ft | 250 kts | 208° |
| 2026-05-06 16:54 | 47.44061 | 19.05748 | 6258 ft | 253 kts | 202° |
| 2026-05-06 16:54 | 47.42436 | 19.04742 | 7019 ft | 257 kts | 202° |
| 2026-05-06 16:54 | 47.40800 | 19.03704 | 7794 ft | 260 kts | 204° |
| 2026-05-06 16:55 | 47.39152 | 19.02617 | 8579 ft | 262 kts | 204° |
| 2026-05-06 16:55 | 47.37488 | 19.01490 | 9372 ft | 265 kts | 205° |
| 2026-05-06 16:55 | 47.35833 | 19.00355 | 10096 ft | 268 kts | 205° |
| 2026-05-06 16:55 | 47.34103 | 18.99162 | 10666 ft | 280 kts | 205° |
| 2026-05-06 16:56 | 47.32387 | 18.97660 | 10937 ft | 298 kts | 220° |
| 2026-05-06 16:56 | 47.31102 | 18.95197 | 11251 ft | 317 kts | 242° |
| 2026-05-06 16:56 | 47.30547 | 18.91994 | 11744 ft | 334 kts | 265° |
| 2026-05-06 16:56 | 47.30934 | 18.88609 | 12360 ft | 346 kts | 288° |
| 2026-05-06 16:57 | 47.32039 | 18.85428 | 13069 ft | 351 kts | 295° |
| 2026-05-06 16:57 | 47.33216 | 18.82255 | 13731 ft | 355 kts | 295° |
| 2026-05-06 16:57 | 47.34394 | 18.79056 | 14386 ft | 358 kts | 295° |
| 2026-05-06 16:57 | 47.35548 | 18.75906 | 15013 ft | 346 kts | 295° |
| 2026-05-06 16:58 | 47.36707 | 18.72722 | 15249 ft | 357 kts | 295° |
| 2026-05-06 16:58 | 47.37880 | 18.69473 | 15722 ft | 364 kts | 295° |
| 2026-05-06 16:58 | 47.39069 | 18.66181 | 16348 ft | 367 kts | 295° |
| 2026-05-06 16:58 | 47.40255 | 18.62882 | 16956 ft | 369 kts | 294° |
| 2026-05-06 16:59 | 47.41337 | 18.59476 | 17542 ft | 370 kts | 290° |
| 2026-05-06 16:59 | 47.42261 | 18.55902 | 18119 ft | 372 kts | 286° |
| 2026-05-06 16:59 | 47.43027 | 18.52305 | 18685 ft | 374 kts | 284° |
| 2026-05-06 16:59 | 47.43783 | 18.48583 | 19272 ft | 376 kts | 284° |
| 2026-05-06 17:00 | 47.44527 | 18.44891 | 19840 ft | 378 kts | 284° |
| 2026-05-06 17:00 | 47.45271 | 18.41201 | 20385 ft | 380 kts | 284° |
| 2026-05-06 17:00 | 47.46022 | 18.37483 | 20900 ft | 383 kts | 284° |
| 2026-05-06 17:00 | 47.46787 | 18.33696 | 21420 ft | 386 kts | 283° |
| 2026-05-06 17:01 | 47.47550 | 18.29913 | 21938 ft | 388 kts | 283° |
| 2026-05-06 17:01 | 47.48316 | 18.26053 | 22445 ft | 390 kts | 282° |
| 2026-05-06 17:01 | 47.48984 | 18.22203 | 22925 ft | 392 kts | 281° |
| 2026-05-06 17:01 | 47.49637 | 18.18279 | 23400 ft | 394 kts | 280° |
| 2026-05-06 17:02 | 47.50284 | 18.14352 | 23857 ft | 397 kts | 280° |
| 2026-05-06 17:02 | 47.50934 | 18.10393 | 24327 ft | 398 kts | 280° |
| 2026-05-06 17:02 | 47.51582 | 18.06437 | 24788 ft | 400 kts | 280° |
| 2026-05-06 17:02 | 47.52237 | 18.02436 | 25217 ft | 401 kts | 280° |
| 2026-05-06 17:03 | 47.52886 | 17.98459 | 25634 ft | 403 kts | 280° |
| 2026-05-06 17:03 | 47.53546 | 17.94402 | 26029 ft | 404 kts | 280° |
| 2026-05-06 17:03 | 47.54194 | 17.90411 | 26393 ft | 406 kts | 280° |
| 2026-05-06 17:03 | 47.54867 | 17.86323 | 26752 ft | 409 kts | 282° |
| 2026-05-06 17:04 | 47.55725 | 17.82316 | 27121 ft | 412 kts | 287° |
| 2026-05-06 17:04 | 47.56847 | 17.78411 | 27474 ft | 416 kts | 292° |
| 2026-05-06 17:04 | 47.58219 | 17.74630 | 27814 ft | 419 kts | 296° |
| 2026-05-06 17:04 | 47.59696 | 17.70895 | 28142 ft | 421 kts | 296° |
| 2026-05-06 17:05 | 47.61184 | 17.67175 | 28443 ft | 423 kts | 297° |
| 2026-05-06 17:05 | 47.62683 | 17.63425 | 28744 ft | 425 kts | 296° |
| 2026-05-06 17:05 | 47.64187 | 17.59655 | 29052 ft | 426 kts | 296° |
| 2026-05-06 17:05 | 47.65670 | 17.55922 | 29356 ft | 427 kts | 296° |
| 2026-05-06 17:06 | 47.67174 | 17.52126 | 29638 ft | 429 kts | 296° |
| 2026-05-06 17:06 | 47.68682 | 17.48312 | 29956 ft | 429 kts | 296° |
| 2026-05-06 17:06 | 47.70189 | 17.44495 | 30362 ft | 427 kts | 296° |
| 2026-05-06 17:06 | 47.71663 | 17.40754 | 30751 ft | 425 kts | 296° |
| 2026-05-06 17:07 | 47.73156 | 17.36959 | 31113 ft | 424 kts | 296° |
| 2026-05-06 17:07 | 47.74639 | 17.33172 | 31466 ft | 423 kts | 295° |
| 2026-05-06 17:07 | 47.76089 | 17.29452 | 31794 ft | 422 kts | 295° |
| 2026-05-06 17:07 | 47.77557 | 17.25684 | 32112 ft | 421 kts | 295° |
| 2026-05-06 17:08 | 47.79032 | 17.21901 | 32396 ft | 421 kts | 295° |
| 2026-05-06 17:08 | 47.80485 | 17.18173 | 32621 ft | 422 kts | 295° |
| 2026-05-06 17:08 | 47.82011 | 17.14405 | 32819 ft | 426 kts | 297° |
| 2026-05-06 17:08 | 47.83654 | 17.10781 | 33026 ft | 429 kts | 300° |
| 2026-05-06 17:09 | 47.85464 | 17.07214 | 33241 ft | 431 kts | 303° |
| 2026-05-06 17:09 | 47.87347 | 17.03764 | 33456 ft | 432 kts | 303° |
| 2026-05-06 17:09 | 47.89243 | 17.00334 | 33651 ft | 433 kts | 303° |
| 2026-05-06 17:09 | 47.91167 | 16.96857 | 33776 ft | 435 kts | 303° |
| 2026-05-06 17:10 | 47.93088 | 16.93378 | 33776 ft | 435 kts | 303° |
| 2026-05-06 17:10 | 47.96903 | 16.86455 | 33779 ft | 436 kts | 303° |
| 2026-05-06 17:11 | 48.00748 | 16.79452 | 33771 ft | 435 kts | 303° |
| 2026-05-06 17:11 | 48.04573 | 16.72458 | 33765 ft | 435 kts | 303° |
| 2026-05-06 17:12 | 48.08378 | 16.65483 | 33765 ft | 435 kts | 303° |
| 2026-05-06 17:12 | 48.12204 | 16.58477 | 33759 ft | 434 kts | 303° |
| 2026-05-06 17:13 | 48.16014 | 16.51509 | 33754 ft | 435 kts | 303° |
| 2026-05-06 17:13 | 48.19832 | 16.44478 | 33745 ft | 435 kts | 303° |
| 2026-05-06 17:14 | 48.23650 | 16.37416 | 33743 ft | 434 kts | 303° |
| 2026-05-06 17:14 | 48.27425 | 16.30397 | 33748 ft | 433 kts | 302° |
| 2026-05-06 17:15 | 48.31185 | 16.23372 | 33751 ft | 433 kts | 301° |
| 2026-05-06 17:15 | 48.34962 | 16.16310 | 33742 ft | 432 kts | 302° |
| 2026-05-06 17:16 | 48.38741 | 16.09232 | 33730 ft | 431 kts | 301° |
| 2026-05-06 17:16 | 48.42471 | 16.02229 | 33723 ft | 431 kts | 301° |
| 2026-05-06 17:17 | 48.46226 | 15.95161 | 33716 ft | 432 kts | 301° |
| 2026-05-06 17:17 | 48.49965 | 15.88109 | 33713 ft | 431 kts | 301° |
| 2026-05-06 17:18 | 48.53693 | 15.81052 | 33710 ft | 431 kts | 301° |
| 2026-05-06 17:18 | 48.57419 | 15.73985 | 33711 ft | 432 kts | 301° |
| 2026-05-06 17:19 | 48.61141 | 15.66901 | 33714 ft | 432 kts | 301° |
| 2026-05-06 17:19 | 48.64883 | 15.59765 | 33712 ft | 432 kts | 301° |
| 2026-05-06 17:20 | 48.68588 | 15.52681 | 33712 ft | 432 kts | 301° |
| 2026-05-06 17:20 | 48.72306 | 15.45551 | 33711 ft | 431 kts | 301° |
| 2026-05-06 17:21 | 48.76018 | 15.38415 | 33707 ft | 431 kts | 301° |
| 2026-05-06 17:21 | 48.79715 | 15.31272 | 33703 ft | 432 kts | 300° |
| 2026-05-06 17:22 | 48.83403 | 15.24120 | 33698 ft | 432 kts | 300° |
| 2026-05-06 17:22 | 48.87104 | 15.16934 | 33693 ft | 432 kts | 300° |
| 2026-05-06 17:23 | 48.90803 | 15.09705 | 33690 ft | 432 kts | 299° |
| 2026-05-06 17:23 | 48.94386 | 15.02395 | 33694 ft | 431 kts | 299° |
| 2026-05-06 17:24 | 48.97970 | 14.95021 | 33698 ft | 432 kts | 299° |
| 2026-05-06 17:24 | 49.01546 | 14.87653 | 33698 ft | 433 kts | 299° |
| 2026-05-06 17:25 | 49.05098 | 14.80322 | 33702 ft | 433 kts | 299° |
| 2026-05-06 17:25 | 49.08663 | 14.72948 | 33707 ft | 432 kts | 299° |
| 2026-05-06 17:26 | 49.12248 | 14.65541 | 33706 ft | 433 kts | 299° |
| 2026-05-06 17:26 | 49.15830 | 14.58155 | 33703 ft | 433 kts | 299° |
| 2026-05-06 17:27 | 49.19373 | 14.50791 | 33705 ft | 432 kts | 299° |
| 2026-05-06 17:27 | 49.22928 | 14.43367 | 33712 ft | 433 kts | 299° |
| 2026-05-06 17:28 | 49.26460 | 14.35962 | 33719 ft | 433 kts | 299° |
| 2026-05-06 17:28 | 49.29985 | 14.28532 | 33717 ft | 432 kts | 298° |
| 2026-05-06 17:29 | 49.33522 | 14.21052 | 33708 ft | 434 kts | 298° |
| 2026-05-06 17:29 | 49.37058 | 14.13564 | 33712 ft | 437 kts | 298° |
| 2026-05-06 17:30 | 49.40598 | 14.06063 | 33715 ft | 433 kts | 298° |
| 2026-05-06 17:30 | 49.44125 | 13.98560 | 33720 ft | 434 kts | 298° |
| 2026-05-06 17:31 | 49.47646 | 13.91051 | 33721 ft | 433 kts | 298° |
| 2026-05-06 17:31 | 49.51152 | 13.83553 | 33716 ft | 433 kts | 298° |
| 2026-05-06 17:32 | 49.54657 | 13.76035 | 33735 ft | 433 kts | 298° |
| 2026-05-06 17:32 | 49.58138 | 13.68544 | 33739 ft | 434 kts | 298° |
| 2026-05-06 17:33 | 49.61652 | 13.60966 | 33725 ft | 434 kts | 299° |
| 2026-05-06 17:33 | 49.65141 | 13.53425 | 33743 ft | 434 kts | 298° |
| 2026-05-06 17:34 | 49.68619 | 13.45880 | 33737 ft | 433 kts | 298° |
| 2026-05-06 17:34 | 49.72110 | 13.38284 | 33736 ft | 433 kts | 298° |
| 2026-05-06 17:35 | 49.75586 | 13.30691 | 33724 ft | 431 kts | 297° |
| 2026-05-06 17:35 | 49.79024 | 13.23145 | 33743 ft | 427 kts | 298° |
| 2026-05-06 17:36 | 49.84194 | 13.11815 | 33761 ft | 435 kts | 298° |
| 2026-05-06 17:36 | 49.87664 | 13.04179 | 33759 ft | 432 kts | 297° |
| 2026-05-06 17:37 | 49.91110 | 12.96569 | 33757 ft | 434 kts | 297° |
| 2026-05-06 17:37 | 49.94564 | 12.88907 | 33752 ft | 434 kts | 297° |
| 2026-05-06 17:38 | 49.98029 | 12.81203 | 33751 ft | 435 kts | 297° |
| 2026-05-06 17:38 | 50.01328 | 12.73374 | 33740 ft | 429 kts | 289° |
| 2026-05-06 17:39 | 50.03731 | 12.64994 | 33754 ft | 426 kts | 286° |
| 2026-05-06 17:39 | 50.06053 | 12.56508 | 33762 ft | 427 kts | 286° |
| 2026-05-06 17:40 | 50.08382 | 12.48021 | 33762 ft | 427 kts | 286° |
| 2026-05-06 17:40 | 50.10695 | 12.39664 | 33756 ft | 409 kts | 286° |
| 2026-05-06 17:41 | 50.12940 | 12.31540 | 33766 ft | 416 kts | 284° |
| 2026-05-06 17:41 | 50.15227 | 12.23129 | 33767 ft | 426 kts | 285° |
| 2026-05-06 17:42 | 50.17538 | 12.14642 | 33770 ft | 429 kts | 285° |
| 2026-05-06 17:42 | 50.19854 | 12.06116 | 33776 ft | 428 kts | 285° |
| 2026-05-06 17:43 | 50.22164 | 11.97578 | 33783 ft | 430 kts | 285° |
| 2026-05-06 17:43 | 50.24484 | 11.88973 | 33783 ft | 430 kts | 285° |
| 2026-05-06 17:44 | 50.26791 | 11.80378 | 33783 ft | 431 kts | 285° |
| 2026-05-06 17:44 | 50.29101 | 11.71754 | 33787 ft | 432 kts | 285° |
| 2026-05-06 17:45 | 50.31388 | 11.63174 | 33776 ft | 431 kts | 285° |
| 2026-05-06 17:45 | 50.33689 | 11.54503 | 33783 ft | 434 kts | 286° |
| 2026-05-06 17:46 | 50.35988 | 11.45819 | 33770 ft | 434 kts | 286° |
| 2026-05-06 17:46 | 50.38290 | 11.37078 | 33773 ft | 434 kts | 286° |
| 2026-05-06 17:47 | 50.40580 | 11.28344 | 33772 ft | 434 kts | 285° |
| 2026-05-06 17:47 | 50.42860 | 11.19613 | 33769 ft | 435 kts | 285° |
| 2026-05-06 17:48 | 50.45135 | 11.10867 | 33773 ft | 435 kts | 286° |
| 2026-05-06 17:48 | 50.47410 | 11.02100 | 33773 ft | 435 kts | 286° |
| 2026-05-06 17:49 | 50.49681 | 10.93317 | 33762 ft | 436 kts | 286° |
| 2026-05-06 17:49 | 50.51938 | 10.84549 | 33761 ft | 436 kts | 286° |
| 2026-05-06 17:50 | 50.54200 | 10.75718 | 33769 ft | 438 kts | 286° |
| 2026-05-06 17:50 | 50.56469 | 10.66822 | 33775 ft | 438 kts | 286° |
| 2026-05-06 17:51 | 50.58809 | 10.57960 | 33774 ft | 441 kts | 289° |
| 2026-05-06 17:51 | 50.61525 | 10.49297 | 33776 ft | 443 kts | 291° |
| 2026-05-06 17:52 | 50.64290 | 10.40674 | 33773 ft | 443 kts | 291° |
| 2026-05-06 17:52 | 50.67051 | 10.32005 | 33768 ft | 443 kts | 290° |
| 2026-05-06 17:53 | 50.69786 | 10.23359 | 33763 ft | 443 kts | 290° |
| 2026-05-06 17:53 | 50.72516 | 10.14699 | 33766 ft | 442 kts | 290° |
| 2026-05-06 17:54 | 50.75237 | 10.06033 | 33767 ft | 443 kts | 291° |
| 2026-05-06 17:54 | 50.77982 | 9.97276 | 33770 ft | 444 kts | 291° |
| 2026-05-06 17:55 | 50.80711 | 9.88538 | 33767 ft | 443 kts | 291° |
| 2026-05-06 17:55 | 50.83419 | 9.79837 | 33766 ft | 444 kts | 291° |
| 2026-05-06 17:56 | 50.86115 | 9.71140 | 33769 ft | 444 kts | 291° |
| 2026-05-06 17:56 | 50.88820 | 9.62390 | 33772 ft | 443 kts | 292° |
| 2026-05-06 17:57 | 50.91523 | 9.53618 | 33777 ft | 443 kts | 292° |
| 2026-05-06 17:57 | 50.94221 | 9.44832 | 33779 ft | 442 kts | 291° |
| 2026-05-06 17:58 | 50.96896 | 9.36078 | 33782 ft | 442 kts | 292° |
| 2026-05-06 17:58 | 50.99549 | 9.27345 | 33787 ft | 442 kts | 291° |
| 2026-05-06 17:59 | 51.02218 | 9.18532 | 33798 ft | 442 kts | 291° |
| 2026-05-06 17:59 | 51.04865 | 9.09769 | 33798 ft | 441 kts | 292° |
| 2026-05-06 18:00 | 51.07502 | 9.01010 | 33803 ft | 442 kts | 292° |
| 2026-05-06 18:00 | 51.10151 | 8.92185 | 33810 ft | 442 kts | 292° |
| 2026-05-06 18:01 | 51.13046 | 8.83529 | 33817 ft | 445 kts | 298° |
| 2026-05-06 18:01 | 51.16496 | 8.75390 | 33818 ft | 448 kts | 304° |
| 2026-05-06 18:02 | 51.20363 | 8.67635 | 33818 ft | 448 kts | 306° |
| 2026-05-06 18:02 | 51.24246 | 8.59962 | 33815 ft | 448 kts | 306° |
| 2026-05-06 18:03 | 51.28130 | 8.52238 | 33813 ft | 447 kts | 306° |
| 2026-05-06 18:03 | 51.32019 | 8.44473 | 33814 ft | 447 kts | 306° |
| 2026-05-06 18:04 | 51.35743 | 8.36576 | 33818 ft | 446 kts | 304° |
| 2026-05-06 18:04 | 51.39401 | 8.28600 | 33828 ft | 446 kts | 303° |
| 2026-05-06 18:05 | 51.43063 | 8.20574 | 33832 ft | 446 kts | 303° |
| 2026-05-06 18:05 | 51.44870 | 8.16614 | 33719 ft | 447 kts | 303° |
| 2026-05-06 18:05 | 51.46704 | 8.12590 | 33521 ft | 445 kts | 303° |
| 2026-05-06 18:06 | 51.48526 | 8.08591 | 33307 ft | 443 kts | 303° |
| 2026-05-06 18:06 | 51.50315 | 8.04656 | 32970 ft | 441 kts | 303° |
| 2026-05-06 18:06 | 51.52115 | 8.00689 | 32406 ft | 441 kts | 304° |
| 2026-05-06 18:06 | 51.53916 | 7.96714 | 31744 ft | 442 kts | 304° |
| 2026-05-06 18:07 | 51.55698 | 7.92774 | 31033 ft | 444 kts | 304° |
| 2026-05-06 18:07 | 51.57513 | 7.88756 | 30228 ft | 446 kts | 304° |
| 2026-05-06 18:07 | 51.59334 | 7.84719 | 29483 ft | 446 kts | 304° |
| 2026-05-06 18:07 | 51.61137 | 7.80717 | 28998 ft | 439 kts | 304° |
| 2026-05-06 18:08 | 51.62901 | 7.76795 | 28560 ft | 433 kts | 304° |
| 2026-05-06 18:08 | 51.64651 | 7.72895 | 28108 ft | 427 kts | 304° |
| 2026-05-06 18:08 | 51.66358 | 7.69086 | 27664 ft | 422 kts | 304° |
| 2026-05-06 18:08 | 51.68055 | 7.65295 | 27220 ft | 417 kts | 304° |
| 2026-05-06 18:09 | 51.69562 | 7.61339 | 26748 ft | 410 kts | 294° |
| 2026-05-06 18:09 | 51.70449 | 7.57068 | 26296 ft | 404 kts | 281° |
| 2026-05-06 18:09 | 51.70712 | 7.52616 | 25826 ft | 398 kts | 268° |
| 2026-05-06 18:09 | 51.70556 | 7.48195 | 25370 ft | 395 kts | 265° |
| 2026-05-06 18:10 | 51.70334 | 7.43814 | 24925 ft | 391 kts | 265° |
| 2026-05-06 18:10 | 51.70107 | 7.39469 | 24492 ft | 388 kts | 265° |
| 2026-05-06 18:10 | 51.69884 | 7.35165 | 24058 ft | 385 kts | 265° |
| 2026-05-06 18:10 | 51.69668 | 7.30902 | 23645 ft | 382 kts | 264° |
| 2026-05-06 18:11 | 51.69457 | 7.26700 | 23226 ft | 380 kts | 264° |
| 2026-05-06 18:11 | 51.69246 | 7.22465 | 22799 ft | 378 kts | 265° |
| 2026-05-06 18:11 | 51.69034 | 7.18263 | 22367 ft | 376 kts | 265° |
| 2026-05-06 18:11 | 51.68826 | 7.14120 | 21947 ft | 374 kts | 265° |
| 2026-05-06 18:12 | 51.68615 | 7.09959 | 21525 ft | 371 kts | 265° |
| 2026-05-06 18:12 | 51.68404 | 7.05821 | 21118 ft | 369 kts | 265° |
| 2026-05-06 18:12 | 51.68197 | 7.01782 | 20714 ft | 367 kts | 265° |
| 2026-05-06 18:12 | 51.67986 | 6.97683 | 20300 ft | 364 kts | 265° |
| 2026-05-06 18:13 | 51.67777 | 6.93678 | 19879 ft | 363 kts | 265° |
| 2026-05-06 18:13 | 51.67565 | 6.89622 | 19446 ft | 361 kts | 265° |
| 2026-05-06 18:13 | 51.67354 | 6.85605 | 19005 ft | 360 kts | 265° |
| 2026-05-06 18:13 | 51.67145 | 6.81652 | 18573 ft | 359 kts | 265° |
| 2026-05-06 18:14 | 51.66932 | 6.77663 | 18147 ft | 357 kts | 265° |
| 2026-05-06 18:14 | 51.66720 | 6.73709 | 17718 ft | 355 kts | 266° |
| 2026-05-06 18:14 | 51.66509 | 6.69789 | 17295 ft | 353 kts | 265° |
| 2026-05-06 18:14 | 51.66296 | 6.65873 | 16888 ft | 351 kts | 266° |
| 2026-05-06 18:15 | 51.66082 | 6.61984 | 16462 ft | 350 kts | 266° |
| 2026-05-06 18:15 | 51.65868 | 6.58083 | 16035 ft | 348 kts | 266° |
| 2026-05-06 18:15 | 51.65655 | 6.54215 | 15615 ft | 346 kts | 266° |
| 2026-05-06 18:15 | 51.65443 | 6.50399 | 15201 ft | 343 kts | 266° |
| 2026-05-06 18:16 | 51.65230 | 6.46584 | 14782 ft | 341 kts | 266° |
| 2026-05-06 18:16 | 51.65019 | 6.42852 | 14358 ft | 340 kts | 267° |
| 2026-05-06 18:16 | 51.64806 | 6.39076 | 13923 ft | 339 kts | 266° |
| 2026-05-06 18:16 | 51.64590 | 6.35291 | 13491 ft | 338 kts | 267° |
| 2026-05-06 18:17 | 51.64375 | 6.31519 | 13054 ft | 337 kts | 266° |
| 2026-05-06 18:17 | 51.64163 | 6.27780 | 12636 ft | 336 kts | 266° |
| 2026-05-06 18:17 | 51.63953 | 6.24097 | 12230 ft | 334 kts | 266° |
| 2026-05-06 18:17 | 51.63740 | 6.20378 | 11811 ft | 333 kts | 266° |
| 2026-05-06 18:18 | 51.63526 | 6.16702 | 11401 ft | 331 kts | 266° |
| 2026-05-06 18:18 | 51.63287 | 6.13035 | 10963 ft | 331 kts | 264° |
| 2026-05-06 18:18 | 51.62842 | 6.09377 | 10527 ft | 332 kts | 258° |
| 2026-05-06 18:18 | 51.62163 | 6.05847 | 10160 ft | 329 kts | 252° |
| 2026-05-06 18:19 | 51.61409 | 6.02504 | 10078 ft | 315 kts | 252° |
| 2026-05-06 18:19 | 51.60666 | 5.99281 | 10000 ft | 300 kts | 252° |
| 2026-05-06 18:19 | 51.59959 | 5.96212 | 9933 ft | 287 kts | 252° |
| 2026-05-06 18:19 | 51.59279 | 5.93255 | 9669 ft | 283 kts | 252° |
| 2026-05-06 18:20 | 51.58596 | 5.90269 | 9343 ft | 281 kts | 252° |
| 2026-05-06 18:20 | 51.57928 | 5.87352 | 9024 ft | 279 kts | 252° |
| 2026-05-06 18:20 | 51.57262 | 5.84447 | 8705 ft | 277 kts | 252° |
| 2026-05-06 18:20 | 51.56600 | 5.81565 | 8391 ft | 274 kts | 252° |
| 2026-05-06 18:21 | 51.55947 | 5.78726 | 8079 ft | 272 kts | 252° |
| 2026-05-06 18:21 | 51.55282 | 5.75838 | 7828 ft | 281 kts | 252° |
| 2026-05-06 18:21 | 51.54605 | 5.72900 | 7574 ft | 283 kts | 252° |
| 2026-05-06 18:21 | 51.53923 | 5.69953 | 7315 ft | 282 kts | 252° |
| 2026-05-06 18:22 | 51.53176 | 5.67052 | 7054 ft | 283 kts | 241° |
| 2026-05-06 18:22 | 51.51834 | 5.64754 | 6778 ft | 284 kts | 213° |
| 2026-05-06 18:22 | 51.50020 | 5.63640 | 6527 ft | 283 kts | 190° |
| 2026-05-06 18:22 | 51.48059 | 5.63253 | 6287 ft | 283 kts | 184° |
| 2026-05-06 18:23 | 51.46098 | 5.63009 | 6032 ft | 282 kts | 184° |
| 2026-05-06 18:23 | 51.44167 | 5.62793 | 5790 ft | 281 kts | 184° |
| 2026-05-06 18:23 | 51.42206 | 5.62528 | 5543 ft | 281 kts | 190° |
| 2026-05-06 18:23 | 51.40437 | 5.61375 | 5281 ft | 279 kts | 218° |
| 2026-05-06 18:24 | 51.39044 | 5.59203 | 5026 ft | 278 kts | 231° |
| 2026-05-06 18:24 | 51.37808 | 5.56825 | 4784 ft | 278 kts | 233° |
| 2026-05-06 18:24 | 51.36605 | 5.54423 | 4527 ft | 278 kts | 233° |
| 2026-05-06 18:24 | 51.35399 | 5.52003 | 4259 ft | 278 kts | 233° |
| 2026-05-06 18:25 | 51.34210 | 5.49611 | 4004 ft | 278 kts | 233° |
| 2026-05-06 18:25 | 51.32999 | 5.47176 | 3963 ft | 278 kts | 233° |
| 2026-05-06 18:25 | 51.31802 | 5.44766 | 3961 ft | 276 kts | 233° |
| 2026-05-06 18:25 | 51.30618 | 5.42382 | 3736 ft | 273 kts | 233° |
| 2026-05-06 18:26 | 51.29453 | 5.40035 | 3320 ft | 275 kts | 233° |
| 2026-05-06 18:26 | 51.28268 | 5.37651 | 2960 ft | 274 kts | 233° |
| 2026-05-06 18:26 | 51.27311 | 5.35075 | 2592 ft | 269 kts | 256° |
| 2026-05-06 18:26 | 51.27195 | 5.32185 | 2339 ft | 254 kts | 284° |
| 2026-05-06 18:27 | 51.27632 | 5.29520 | 2190 ft | 243 kts | 291° |
| 2026-05-06 18:27 | 51.28147 | 5.27007 | 2027 ft | 234 kts | 292° |
| 2026-05-06 18:27 | 51.28641 | 5.24650 | 1998 ft | 220 kts | 293° |
| 2026-05-06 18:27 | 51.29114 | 5.22424 | 2069 ft | 202 kts | 296° |
| 2026-05-06 18:28 | 51.29872 | 5.20750 | 1968 ft | 172 kts | 333° |
| 2026-05-06 18:28 | 51.30898 | 5.20462 | 1964 ft | 143 kts | 21° |
| 2026-05-06 18:28 | 51.31665 | 5.21433 | 2017 ft | 146 kts | 48° |
| 2026-05-06 18:28 | 51.32329 | 5.22673 | 2001 ft | 146 kts | 46° |
| 2026-05-06 18:29 | 51.33056 | 5.23813 | 1997 ft | 147 kts | 40° |
| 2026-05-06 18:29 | 51.33841 | 5.24850 | 1995 ft | 147 kts | 37° |
| 2026-05-06 18:29 | 51.34663 | 5.25836 | 1993 ft | 147 kts | 36° |
| 2026-05-06 18:29 | 51.35489 | 5.26783 | 1994 ft | 147 kts | 35° |
| 2026-05-06 18:30 | 51.36329 | 5.27726 | 1994 ft | 147 kts | 34° |
| 2026-05-06 18:30 | 51.37168 | 5.28647 | 1805 ft | 148 kts | 33° |
| 2026-05-06 18:30 | 51.38003 | 5.29582 | 1577 ft | 146 kts | 33° |
| 2026-05-06 18:30 | 51.38817 | 5.30498 | 1360 ft | 138 kts | 35° |
| 2026-05-06 18:31 | 51.39588 | 5.31366 | 1175 ft | 136 kts | 35° |
| 2026-05-06 18:31 | 51.40369 | 5.32246 | 996 ft | 137 kts | 36° |
| 2026-05-06 18:31 | 51.41154 | 5.33129 | 814 ft | 139 kts | 33° |
| 2026-05-06 18:31 | 51.41942 | 5.34012 | 633 ft | 139 kts | 33° |
| 2026-05-06 18:32 | 51.42738 | 5.34904 | 455 ft | 140 kts | 34° |
| 2026-05-06 18:32 | 51.43541 | 5.35808 | 275 ft | 142 kts | 34° |
| 2026-05-06 18:32 | 51.44340 | 5.36705 | 105 ft | 142 kts | 28° |
| 2026-05-06 18:32 | 51.45090 | 5.37528 | 83 ft | 107 kts | 37° |
| 2026-05-06 18:33 | 51.45556 | 5.38056 | 83 ft | 58 kts | 34° |
| 2026-05-06 18:33 | 51.45775 | 5.38304 | 83 ft | 29 kts | 34° |
| 2026-05-06 18:33 | 51.45892 | 5.38436 | 83 ft | 10 kts | 42° |
| 2026-05-06 18:33 | 51.45888 | 5.38541 | 83 ft | 11 kts | 118° |
| 2026-05-06 18:34 | 51.45844 | 5.38651 | 83 ft | 12 kts | 124° |
| 2026-05-06 18:34 | 51.45835 | 5.38671 | 83 ft | 1 kts | 123° |
| 2026-05-06 18:34 | 51.45829 | 5.38684 | 83 ft | 0 kts | 124° |
| 2026-05-06 18:34 | 51.45829 | 5.38685 | 83 ft | 0 kts | 124° |
| 2026-05-06 18:35 | 51.45824 | 5.38697 | 83 ft | 2 kts | 124° |
| 2026-05-06 18:35 | 51.45810 | 5.38729 | 83 ft | 4 kts | 125° |
| 2026-05-06 18:35 | 51.45790 | 5.38783 | 83 ft | 6 kts | 107° |
| 2026-05-06 18:35 | 51.45807 | 5.38847 | 83 ft | 7 kts | 34° |
| 2026-05-06 18:36 | 51.45848 | 5.38908 | 83 ft | 8 kts | 79° |
| 2026-05-06 18:36 | 51.45829 | 5.38988 | 83 ft | 7 kts | 123° |
| 2026-05-06 18:36 | 51.45823 | 5.39001 | 83 ft | 1 kts | 126° |
| 2026-05-06 18:36 | 51.45821 | 5.39004 | 83 ft | 0 kts | 125° |